sensor_id;sensor_type;location;lat;lon;timestamp;pressure;altitude;pressure_sealevel;temperature;humidity
250;BME280;109;19.806;-70.704;2022-09-09T00:03:59;100940.13;;;28.87;56.91
250;BME280;109;19.806;-70.704;2022-09-09T00:06:31;100945.97;;;28.94;57.12
250;BME280;109;19.806;-70.704;2022-09-09T00:12:14;100940.78;;;28.91;57.09
250;BME280;109;19.806;-70.704;2022-09-09T00:15:11;100955.53;;;28.85;57.55
250;BME280;109;19.806;-70.704;2022-09-09T00:23:17;100959.97;;;28.86;57.21
250;BME280;109;19.806;-70.704;2022-09-09T00:28:27;100969.66;;;28.89;57.40
250;BME280;109;19.806;-70.704;2022-09-09T00:31:00;100978.50;;;28.91;57.35
250;BME280;109;19.806;-70.704;2022-09-09T00:33:30;100970.41;;;28.91;57.23
250;BME280;109;19.806;-70.704;2022-09-09T00:35:57;100980.53;;;28.87;57.05
250;BME280;109;19.806;-70.704;2022-09-09T00:38:32;100981.25;;;28.77;56.68
250;BME280;109;19.806;-70.704;2022-09-09T00:54:45;101005.66;;;28.61;57.25
250;BME280;109;19.806;-70.704;2022-09-09T00:57:31;101007.19;;;28.65;57.12
250;BME280;109;19.806;-70.704;2022-09-09T01:00:28;101011.03;;;28.61;56.89
250;BME280;109;19.806;-70.704;2022-09-09T01:09:04;101026.81;;;28.67;57.17
250;BME280;109;19.806;-70.704;2022-09-09T01:29:16;101036.94;;;28.49;57.42
250;BME280;109;19.806;-70.704;2022-09-09T01:32:35;101055.22;;;28.58;57.43
250;BME280;109;19.806;-70.704;2022-09-09T01:35:03;101060.31;;;28.49;57.28
250;BME280;109;19.806;-70.704;2022-09-09T01:37:30;101064.34;;;28.56;57.37
250;BME280;109;19.806;-70.704;2022-09-09T01:40:09;101057.69;;;28.61;57.29
250;BME280;109;19.806;-70.704;2022-09-09T01:42:37;101058.47;;;28.64;57.47
250;BME280;109;19.806;-70.704;2022-09-09T01:45:17;101062.22;;;28.61;57.15
250;BME280;109;19.806;-70.704;2022-09-09T01:47:45;101069.22;;;28.64;57.33
250;BME280;109;19.806;-70.704;2022-09-09T01:50:48;101072.78;;;28.64;57.27
250;BME280;109;19.806;-70.704;2022-09-09T01:53:22;101077.97;;;28.67;57.31
250;BME280;109;19.806;-70.704;2022-09-09T01:59:33;101092.59;;;28.63;57.06
250;BME280;109;19.806;-70.704;2022-09-09T02:02:18;101088.19;;;28.48;57.70
250;BME280;109;19.806;-70.704;2022-09-09T02:05:43;101090.41;;;28.55;57.35
250;BME280;109;19.806;-70.704;2022-09-09T02:08:29;101092.34;;;28.25;57.94
250;BME280;109;19.806;-70.704;2022-09-09T02:11:18;101093.44;;;28.08;58.37
250;BME280;109;19.806;-70.704;2022-09-09T02:14:11;101100.13;;;28.01;58.74
250;BME280;109;19.806;-70.704;2022-09-09T02:19:56;101096.31;;;28.19;58.34
250;BME280;109;19.806;-70.704;2022-09-09T02:22:43;101097.06;;;28.07;58.94
250;BME280;109;19.806;-70.704;2022-09-09T02:25:28;101101.00;;;28.02;58.93
250;BME280;109;19.806;-70.704;2022-09-09T02:28:16;101100.91;;;28.03;58.79
250;BME280;109;19.806;-70.704;2022-09-09T02:31:06;101101.97;;;28.29;58.51
250;BME280;109;19.806;-70.704;2022-09-09T02:33:44;101099.09;;;28.18;58.42
250;BME280;109;19.806;-70.704;2022-09-09T02:36:28;101101.28;;;28.40;58.46
250;BME280;109;19.806;-70.704;2022-09-09T02:39:10;101100.13;;;28.01;59.34
250;BME280;109;19.806;-70.704;2022-09-09T02:41:40;101099.28;;;28.01;59.30
250;BME280;109;19.806;-70.704;2022-09-09T02:44:27;101097.41;;;27.87;59.69
250;BME280;109;19.806;-70.704;2022-09-09T02:50:30;101096.38;;;28.32;58.69
250;BME280;109;19.806;-70.704;2022-09-09T02:53:18;101095.34;;;28.06;59.28
250;BME280;109;19.806;-70.704;2022-09-09T02:56:08;101099.81;;;27.91;59.88
250;BME280;109;19.806;-70.704;2022-09-09T02:58:43;101091.06;;;27.88;59.67
250;BME280;109;19.806;-70.704;2022-09-09T03:01:25;101098.59;;;27.97;59.96
250;BME280;109;19.806;-70.704;2022-09-09T03:04:06;101095.56;;;27.87;59.59
250;BME280;109;19.806;-70.704;2022-09-09T03:06:32;101089.25;;;27.88;59.88
250;BME280;109;19.806;-70.704;2022-09-09T03:09:18;101086.16;;;27.80;60.09
250;BME280;109;19.806;-70.704;2022-09-09T03:11:53;101089.34;;;27.87;60.19
250;BME280;109;19.806;-70.704;2022-09-09T03:14:41;101094.94;;;27.98;59.52
250;BME280;109;19.806;-70.704;2022-09-09T03:17:17;101095.81;;;27.99;59.54
250;BME280;109;19.806;-70.704;2022-09-09T03:19:57;101093.03;;;28.00;59.70
250;BME280;109;19.806;-70.704;2022-09-09T03:22:25;101097.72;;;28.11;59.17
250;BME280;109;19.806;-70.704;2022-09-09T03:25:06;101100.63;;;28.08;59.11
250;BME280;109;19.806;-70.704;2022-09-09T03:27:35;101103.38;;;27.92;59.43
250;BME280;109;19.806;-70.704;2022-09-09T03:30:22;101101.91;;;27.86;59.50
250;BME280;109;19.806;-70.704;2022-09-09T03:33:02;101095.97;;;27.81;60.00
250;BME280;109;19.806;-70.704;2022-09-09T03:35:46;101099.31;;;27.85;59.64
250;BME280;109;19.806;-70.704;2022-09-09T03:38:26;101101.03;;;27.86;60.10
250;BME280;109;19.806;-70.704;2022-09-09T03:41:07;101103.09;;;27.82;59.78
250;BME280;109;19.806;-70.704;2022-09-09T03:43:35;101098.34;;;27.86;59.71
250;BME280;109;19.806;-70.704;2022-09-09T03:46:14;101096.53;;;27.86;59.75
250;BME280;109;19.806;-70.704;2022-09-09T03:48:41;101096.72;;;27.83;59.38
250;BME280;109;19.806;-70.704;2022-09-09T03:51:20;101093.56;;;27.91;59.64
250;BME280;109;19.806;-70.704;2022-09-09T03:53:48;101088.00;;;27.80;59.62
250;BME280;109;19.806;-70.704;2022-09-09T03:56:31;101095.09;;;27.81;60.00
250;BME280;109;19.806;-70.704;2022-09-09T03:59:14;101087.03;;;27.81;59.97
250;BME280;109;19.806;-70.704;2022-09-09T04:01:41;101086.63;;;27.87;59.88
250;BME280;109;19.806;-70.704;2022-09-09T04:04:27;101083.78;;;27.90;59.67
250;BME280;109;19.806;-70.704;2022-09-09T04:07:00;101070.03;;;27.80;59.40
250;BME280;109;19.806;-70.704;2022-09-09T04:09:40;101078.47;;;27.88;59.76
250;BME280;109;19.806;-70.704;2022-09-09T04:12:07;101070.91;;;27.95;59.47
250;BME280;109;19.806;-70.704;2022-09-09T04:14:48;101063.13;;;27.90;59.71
250;BME280;109;19.806;-70.704;2022-09-09T04:17:15;101060.34;;;27.92;59.81
250;BME280;109;19.806;-70.704;2022-09-09T04:19:57;101066.06;;;27.86;59.85
250;BME280;109;19.806;-70.704;2022-09-09T04:22:23;101072.41;;;27.85;59.44
250;BME280;109;19.806;-70.704;2022-09-09T04:25:06;101062.81;;;27.81;59.40
250;BME280;109;19.806;-70.704;2022-09-09T04:27:33;101067.25;;;27.82;59.58
250;BME280;109;19.806;-70.704;2022-09-09T04:30:20;101067.53;;;27.77;60.21
250;BME280;109;19.806;-70.704;2022-09-09T04:33:01;101073.09;;;27.88;59.99
250;BME280;109;19.806;-70.704;2022-09-09T04:35:49;101070.13;;;27.93;59.69
250;BME280;109;19.806;-70.704;2022-09-09T04:38:24;101059.19;;;27.96;59.41
250;BME280;109;19.806;-70.704;2022-09-09T04:41:05;101058.22;;;27.97;59.42
250;BME280;109;19.806;-70.704;2022-09-09T04:43:34;101053.13;;;27.92;59.42
250;BME280;109;19.806;-70.704;2022-09-09T04:46:15;101051.66;;;27.87;59.41
250;BME280;109;19.806;-70.704;2022-09-09T04:48:52;101048.50;;;27.80;59.25
250;BME280;109;19.806;-70.704;2022-09-09T04:51:33;101046.09;;;27.76;59.52
250;BME280;109;19.806;-70.704;2022-09-09T04:54:13;101041.47;;;27.64;60.00
250;BME280;109;19.806;-70.704;2022-09-09T04:56:42;101043.41;;;27.62;59.82
250;BME280;109;19.806;-70.704;2022-09-09T04:59:29;101045.69;;;27.53;60.00
250;BME280;109;19.806;-70.704;2022-09-09T05:02:03;101042.06;;;27.54;60.19
250;BME280;109;19.806;-70.704;2022-09-09T05:04:43;101039.81;;;27.47;60.16
250;BME280;109;19.806;-70.704;2022-09-09T05:07:10;101041.91;;;27.42;60.49
250;BME280;109;19.806;-70.704;2022-09-09T05:09:50;101037.84;;;27.35;60.24
250;BME280;109;19.806;-70.704;2022-09-09T05:12:16;101033.75;;;27.43;60.20
250;BME280;109;19.806;-70.704;2022-09-09T05:14:57;101030.88;;;27.46;59.97
250;BME280;109;19.806;-70.704;2022-09-09T05:17:24;101026.28;;;27.48;60.31
250;BME280;109;19.806;-70.704;2022-09-09T05:20:05;101031.94;;;27.44;60.26
250;BME280;109;19.806;-70.704;2022-09-09T05:22:31;101023.53;;;27.34;60.45
250;BME280;109;19.806;-70.704;2022-09-09T05:25:12;101026.63;;;27.28;60.23
250;BME280;109;19.806;-70.704;2022-09-09T05:27:39;101020.94;;;27.33;60.35
250;BME280;109;19.806;-70.704;2022-09-09T05:30:26;101013.19;;;27.28;60.16
250;BME280;109;19.806;-70.704;2022-09-09T05:33:05;101022.00;;;27.30;60.01
250;BME280;109;19.806;-70.704;2022-09-09T05:35:47;101019.31;;;27.30;60.56
250;BME280;109;19.806;-70.704;2022-09-09T05:38:13;101015.88;;;27.28;60.34
250;BME280;109;19.806;-70.704;2022-09-09T05:40:53;101015.19;;;27.25;60.68
250;BME280;109;19.806;-70.704;2022-09-09T05:43:20;101015.34;;;27.21;60.88
250;BME280;109;19.806;-70.704;2022-09-09T05:46:11;101011.97;;;27.18;60.21
250;BME280;109;19.806;-70.704;2022-09-09T05:48:47;101007.94;;;27.11;60.25
250;BME280;109;19.806;-70.704;2022-09-09T05:51:31;101014.22;;;26.96;60.62
250;BME280;109;19.806;-70.704;2022-09-09T05:54:20;101013.09;;;27.00;60.87
250;BME280;109;19.806;-70.704;2022-09-09T05:56:54;101019.75;;;26.93;60.92
250;BME280;109;19.806;-70.704;2022-09-09T05:59:33;101020.75;;;26.92;60.72
250;BME280;109;19.806;-70.704;2022-09-09T06:02:00;101022.28;;;26.96;60.93
250;BME280;109;19.806;-70.704;2022-09-09T06:04:39;101015.00;;;26.98;60.73
250;BME280;109;19.806;-70.704;2022-09-09T06:07:07;101013.44;;;26.94;60.76
250;BME280;109;19.806;-70.704;2022-09-09T06:09:48;101011.78;;;26.91;61.13
250;BME280;109;19.806;-70.704;2022-09-09T06:12:14;101009.81;;;26.95;61.03
250;BME280;109;19.806;-70.704;2022-09-09T06:14:53;101011.44;;;26.97;60.90
250;BME280;109;19.806;-70.704;2022-09-09T06:17:20;101013.25;;;26.97;60.73
250;BME280;109;19.806;-70.704;2022-09-09T06:20:00;100999.91;;;26.95;60.47
250;BME280;109;19.806;-70.704;2022-09-09T06:22:26;100996.97;;;27.00;60.38
250;BME280;109;19.806;-70.704;2022-09-09T06:25:08;100996.47;;;26.93;60.50
250;BME280;109;19.806;-70.704;2022-09-09T06:27:35;100996.97;;;27.00;60.59
250;BME280;109;19.806;-70.704;2022-09-09T06:30:21;101000.69;;;26.97;60.55
250;BME280;109;19.806;-70.704;2022-09-09T06:33:00;101001.97;;;27.06;60.65
250;BME280;109;19.806;-70.704;2022-09-09T06:35:41;100991.59;;;27.00;60.43
250;BME280;109;19.806;-70.704;2022-09-09T06:38:08;100995.47;;;27.10;60.21
250;BME280;109;19.806;-70.704;2022-09-09T06:40:56;101004.31;;;27.12;60.30
250;BME280;109;19.806;-70.704;2022-09-09T06:43:32;100990.34;;;27.05;60.26
250;BME280;109;19.806;-70.704;2022-09-09T06:46:14;100998.22;;;27.08;60.47
250;BME280;109;19.806;-70.704;2022-09-09T06:48:47;101000.22;;;27.05;60.29
250;BME280;109;19.806;-70.704;2022-09-09T06:51:33;100990.81;;;26.98;60.11
250;BME280;109;19.806;-70.704;2022-09-09T06:54:17;100995.59;;;26.93;60.96
250;BME280;109;19.806;-70.704;2022-09-09T06:56:44;100996.56;;;26.92;60.74
250;BME280;109;19.806;-70.704;2022-09-09T06:59:24;101002.97;;;26.89;60.91
250;BME280;109;19.806;-70.704;2022-09-09T07:01:54;100999.75;;;26.82;60.77
250;BME280;109;19.806;-70.704;2022-09-09T07:04:34;101006.69;;;26.86;60.74
250;BME280;109;19.806;-70.704;2022-09-09T07:07:00;100995.59;;;26.93;60.42
250;BME280;109;19.806;-70.704;2022-09-09T07:09:41;100994.03;;;26.89;60.48
250;BME280;109;19.806;-70.704;2022-09-09T07:12:08;100997.66;;;26.88;60.29
250;BME280;109;19.806;-70.704;2022-09-09T07:14:55;100997.06;;;26.82;61.13
250;BME280;109;19.806;-70.704;2022-09-09T07:17:27;100991.69;;;26.82;60.52
250;BME280;109;19.806;-70.704;2022-09-09T07:20:08;100988.88;;;26.70;61.30
250;BME280;109;19.806;-70.704;2022-09-09T07:22:34;100991.63;;;26.68;61.04
250;BME280;109;19.806;-70.704;2022-09-09T07:25:14;100987.41;;;26.64;61.55
250;BME280;109;19.806;-70.704;2022-09-09T07:27:43;100989.91;;;26.67;61.50
250;BME280;109;19.806;-70.704;2022-09-09T07:30:30;100989.91;;;26.67;61.18
250;BME280;109;19.806;-70.704;2022-09-09T07:33:09;100982.44;;;26.72;61.11
250;BME280;109;19.806;-70.704;2022-09-09T07:35:53;100987.03;;;26.70;61.21
250;BME280;109;19.806;-70.704;2022-09-09T07:38:27;100993.19;;;26.72;61.10
250;BME280;109;19.806;-70.704;2022-09-09T07:41:08;100993.81;;;26.77;60.80
250;BME280;109;19.806;-70.704;2022-09-09T07:43:46;100984.19;;;26.73;60.87
250;BME280;109;19.806;-70.704;2022-09-09T07:46:27;100986.97;;;26.72;60.92
250;BME280;109;19.806;-70.704;2022-09-09T07:48:55;100989.16;;;26.65;61.22
250;BME280;109;19.806;-70.704;2022-09-09T07:51:39;100995.66;;;26.61;60.82
250;BME280;109;19.806;-70.704;2022-09-09T07:54:22;100995.72;;;26.60;61.27
250;BME280;109;19.806;-70.704;2022-09-09T07:56:51;100995.91;;;26.57;60.93
250;BME280;109;19.806;-70.704;2022-09-09T07:59:34;100993.22;;;26.57;61.46
250;BME280;109;19.806;-70.704;2022-09-09T08:02:02;100999.72;;;26.53;61.10
250;BME280;109;19.806;-70.704;2022-09-09T08:04:44;100998.88;;;26.52;61.08
250;BME280;109;19.806;-70.704;2022-09-09T08:07:10;100999.97;;;26.48;61.14
250;BME280;109;19.806;-70.704;2022-09-09T08:09:54;100995.56;;;26.47;61.21
250;BME280;109;19.806;-70.704;2022-09-09T08:12:30;101010.56;;;26.51;61.66
250;BME280;109;19.806;-70.704;2022-09-09T08:15:10;101014.84;;;26.54;61.59
250;BME280;109;19.806;-70.704;2022-09-09T08:17:37;101002.41;;;26.53;61.40
250;BME280;109;19.806;-70.704;2022-09-09T08:20:18;101011.13;;;26.56;61.04
250;BME280;109;19.806;-70.704;2022-09-09T08:22:44;101011.06;;;26.58;61.22
250;BME280;109;19.806;-70.704;2022-09-09T08:25:25;101005.50;;;26.61;61.35
250;BME280;109;19.806;-70.704;2022-09-09T08:27:53;101011.91;;;26.58;61.26
250;BME280;109;19.806;-70.704;2022-09-09T08:30:40;100995.19;;;26.53;61.32
250;BME280;109;19.806;-70.704;2022-09-09T08:33:20;100998.50;;;26.58;61.59
250;BME280;109;19.806;-70.704;2022-09-09T08:36:01;101004.47;;;26.63;61.22
250;BME280;109;19.806;-70.704;2022-09-09T08:38:35;100993.03;;;26.60;61.59
250;BME280;109;19.806;-70.704;2022-09-09T08:50:34;101005.78;;;26.40;61.75
250;BME280;109;19.806;-70.704;2022-09-09T08:53:27;101008.78;;;26.34;61.88
250;BME280;109;19.806;-70.704;2022-09-09T08:56:16;101009.25;;;26.42;61.77
250;BME280;109;19.806;-70.704;2022-09-09T08:58:55;101010.53;;;26.35;61.69
250;BME280;109;19.806;-70.704;2022-09-09T09:05:19;101020.91;;;26.26;62.04
250;BME280;109;19.806;-70.704;2022-09-09T09:10:51;101015.56;;;26.26;61.71
250;BME280;109;19.806;-70.704;2022-09-09T09:16:29;101033.63;;;26.22;62.05
250;BME280;109;19.806;-70.704;2022-09-09T09:19:14;101034.50;;;26.23;61.90
250;BME280;109;19.806;-70.704;2022-09-09T09:22:21;101034.50;;;26.23;62.23
250;BME280;109;19.806;-70.704;2022-09-09T09:25:19;101044.28;;;26.24;61.93
250;BME280;109;19.806;-70.704;2022-09-09T09:30:55;101036.13;;;26.09;61.98
250;BME280;109;19.806;-70.704;2022-09-09T09:36:32;101042.34;;;26.10;62.54
250;BME280;109;19.806;-70.704;2022-09-09T09:39:26;101049.06;;;26.01;62.28
250;BME280;109;19.806;-70.704;2022-09-09T09:42:10;101055.66;;;25.96;62.30
250;BME280;109;19.806;-70.704;2022-09-09T09:44:54;101051.16;;;25.96;62.23
250;BME280;109;19.806;-70.704;2022-09-09T09:47:28;101057.47;;;25.95;62.21
250;BME280;109;19.806;-70.704;2022-09-09T09:50:19;101066.53;;;25.93;62.36
250;BME280;109;19.806;-70.704;2022-09-09T09:52:58;101064.00;;;25.90;62.75
250;BME280;109;19.806;-70.704;2022-09-09T09:55:50;101073.63;;;25.94;62.33
250;BME280;109;19.806;-70.704;2022-09-09T10:01:34;101081.59;;;25.95;62.16
250;BME280;109;19.806;-70.704;2022-09-09T10:04:19;101083.78;;;26.04;62.35
250;BME280;109;19.806;-70.704;2022-09-09T10:06:55;101081.25;;;26.01;62.38
250;BME280;109;19.806;-70.704;2022-09-09T10:09:35;101091.97;;;26.01;62.35
250;BME280;109;19.806;-70.704;2022-09-09T10:17:45;101105.16;;;26.06;62.24
250;BME280;109;19.806;-70.704;2022-09-09T10:20:38;101098.63;;;26.11;61.55
250;BME280;109;19.806;-70.704;2022-09-09T10:32:48;101110.97;;;26.14;61.94
250;BME280;109;19.806;-70.704;2022-09-09T10:38:17;101118.34;;;26.10;61.99
250;BME280;109;19.806;-70.704;2022-09-09T10:41:33;101123.06;;;26.05;61.54
250;BME280;109;19.806;-70.704;2022-09-09T10:44:56;101129.38;;;26.04;61.87
250;BME280;109;19.806;-70.704;2022-09-09T10:47:31;101131.97;;;26.06;61.78
250;BME280;109;19.806;-70.704;2022-09-09T10:56:22;101144.50;;;26.23;61.36
250;BME280;109;19.806;-70.704;2022-09-09T10:59:05;101149.88;;;26.23;61.31
250;BME280;109;19.806;-70.704;2022-09-09T11:02:16;101144.16;;;26.29;61.69
250;BME280;109;19.806;-70.704;2022-09-09T11:05:05;101149.78;;;26.24;61.09
250;BME280;109;19.806;-70.704;2022-09-09T11:08:04;101154.25;;;26.41;61.29
250;BME280;109;19.806;-70.704;2022-09-09T11:13:53;101162.19;;;26.60;60.43
250;BME280;109;19.806;-70.704;2022-09-09T11:16:53;101164.97;;;26.74;60.06
250;BME280;109;19.806;-70.704;2022-09-09T11:19:41;101160.56;;;26.89;59.90
250;BME280;109;19.806;-70.704;2022-09-09T11:22:25;101167.16;;;26.99;59.78
250;BME280;109;19.806;-70.704;2022-09-09T11:25:10;101164.91;;;27.07;59.68
250;BME280;109;19.806;-70.704;2022-09-09T11:28:36;101169.69;;;27.17;59.93
250;BME280;109;19.806;-70.704;2022-09-09T11:42:49;101189.94;;;27.54;59.08
250;BME280;109;19.806;-70.704;2022-09-09T11:45:42;101201.97;;;27.63;59.10
250;BME280;109;19.806;-70.704;2022-09-09T11:48:29;101192.91;;;27.80;58.50
250;BME280;109;19.806;-70.704;2022-09-09T11:51:25;101197.72;;;27.89;58.59
250;BME280;109;19.806;-70.704;2022-09-09T11:54:21;101199.09;;;27.96;57.91
250;BME280;109;19.806;-70.704;2022-09-09T11:57:25;101201.63;;;28.13;58.04
250;BME280;109;19.806;-70.704;2022-09-09T12:00:48;101202.78;;;28.23;57.34
250;BME280;109;19.806;-70.704;2022-09-09T12:06:29;101213.97;;;28.46;56.66
250;BME280;109;19.806;-70.704;2022-09-09T12:17:49;101217.75;;;28.86;56.01
250;BME280;109;19.806;-70.704;2022-09-09T12:20:36;101224.09;;;28.99;55.82
250;BME280;109;19.806;-70.704;2022-09-09T12:29:23;101219.00;;;29.36;56.42
250;BME280;109;19.806;-70.704;2022-09-09T12:32:24;101233.47;;;29.61;55.94
250;BME280;109;19.806;-70.704;2022-09-09T12:35:19;101232.25;;;29.39;57.11
250;BME280;109;19.806;-70.704;2022-09-09T12:37:56;101238.75;;;29.36;57.48
250;BME280;109;19.806;-70.704;2022-09-09T12:40:39;101245.38;;;29.30;57.44
250;BME280;109;19.806;-70.704;2022-09-09T12:43:21;101246.06;;;29.34;57.24
250;BME280;109;19.806;-70.704;2022-09-09T12:46:07;101246.84;;;29.22;58.09
250;BME280;109;19.806;-70.704;2022-09-09T12:48:48;101245.00;;;29.37;57.99
250;BME280;109;19.806;-70.704;2022-09-09T12:51:33;101250.38;;;29.37;57.61
250;BME280;109;19.806;-70.704;2022-09-09T12:54:14;101253.38;;;29.46;57.86
250;BME280;109;19.806;-70.704;2022-09-09T12:56:46;101248.13;;;29.43;57.36
250;BME280;109;19.806;-70.704;2022-09-09T12:59:36;101250.81;;;29.57;57.57
250;BME280;109;19.806;-70.704;2022-09-09T13:02:22;101246.38;;;29.56;57.79
250;BME280;109;19.806;-70.704;2022-09-09T13:05:16;101255.81;;;29.63;57.56
250;BME280;109;19.806;-70.704;2022-09-09T13:07:51;101260.28;;;29.77;57.42
250;BME280;109;19.806;-70.704;2022-09-09T13:10:34;101263.25;;;29.60;57.34
250;BME280;109;19.806;-70.704;2022-09-09T13:13:19;101273.31;;;29.71;57.96
250;BME280;109;19.806;-70.704;2022-09-09T13:16:00;101277.16;;;29.66;57.58
250;BME280;109;19.806;-70.704;2022-09-09T13:18:30;101275.91;;;29.72;57.19
250;BME280;109;19.806;-70.704;2022-09-09T13:21:12;101273.81;;;29.90;57.57
250;BME280;109;19.806;-70.704;2022-09-09T13:23:39;101280.47;;;30.11;57.18
250;BME280;109;19.806;-70.704;2022-09-09T13:26:24;101276.34;;;30.06;56.45
250;BME280;109;19.806;-70.704;2022-09-09T13:29:17;101291.16;;;29.86;56.55
250;BME280;109;19.806;-70.704;2022-09-09T13:32:26;101291.25;;;29.98;57.44
250;BME280;109;19.806;-70.704;2022-09-09T13:35:23;101285.44;;;30.17;56.51
250;BME280;109;19.806;-70.704;2022-09-09T13:37:58;101289.16;;;30.29;56.32
250;BME280;109;19.806;-70.704;2022-09-09T13:41:00;101295.97;;;30.47;55.40
250;BME280;109;19.806;-70.704;2022-09-09T13:43:45;101303.88;;;30.50;55.63
250;BME280;109;19.806;-70.704;2022-09-09T13:46:39;101315.84;;;30.46;55.91
250;BME280;109;19.806;-70.704;2022-09-09T13:49:29;101314.84;;;30.34;55.82
250;BME280;109;19.806;-70.704;2022-09-09T13:52:08;101318.31;;;30.36;55.93
250;BME280;109;19.806;-70.704;2022-09-09T13:54:51;101318.66;;;30.57;55.81
250;BME280;109;19.806;-70.704;2022-09-09T13:57:20;101319.97;;;30.64;55.56
250;BME280;109;19.806;-70.704;2022-09-09T14:00:01;101316.94;;;30.56;55.82
250;BME280;109;19.806;-70.704;2022-09-09T14:02:29;101318.78;;;30.56;55.87
250;BME280;109;19.806;-70.704;2022-09-09T14:05:11;101311.78;;;30.53;55.70
250;BME280;109;19.806;-70.704;2022-09-09T14:07:38;101312.75;;;30.52;55.44
250;BME280;109;19.806;-70.704;2022-09-09T14:10:18;101320.09;;;30.63;55.81
250;BME280;109;19.806;-70.704;2022-09-09T14:12:44;101322.47;;;30.67;55.28
250;BME280;109;19.806;-70.704;2022-09-09T14:15:25;101322.91;;;30.74;55.58
250;BME280;109;19.806;-70.704;2022-09-09T14:17:52;101324.22;;;30.81;55.42
250;BME280;109;19.806;-70.704;2022-09-09T14:20:32;101325.91;;;30.69;56.13
250;BME280;109;19.806;-70.704;2022-09-09T14:23:05;101330.25;;;30.72;55.39
250;BME280;109;19.806;-70.704;2022-09-09T14:25:46;101326.34;;;30.76;55.32
250;BME280;109;19.806;-70.704;2022-09-09T14:28:13;101332.41;;;30.67;55.89
250;BME280;109;19.806;-70.704;2022-09-09T14:31:00;101323.56;;;30.78;55.56
250;BME280;109;19.806;-70.704;2022-09-09T14:33:35;101324.41;;;30.78;55.67
250;BME280;109;19.806;-70.704;2022-09-09T14:36:15;101331.09;;;30.85;55.72
250;BME280;109;19.806;-70.704;2022-09-09T14:38:41;101322.13;;;30.85;55.28
250;BME280;109;19.806;-70.704;2022-09-09T14:41:21;101327.91;;;30.93;54.66
250;BME280;109;19.806;-70.704;2022-09-09T14:43:48;101321.63;;;30.92;55.30
250;BME280;109;19.806;-70.704;2022-09-09T14:46:29;101335.63;;;30.59;55.78
250;BME280;109;19.806;-70.704;2022-09-09T14:49:09;101335.63;;;30.72;56.03
250;BME280;109;19.806;-70.704;2022-09-09T14:51:36;101338.91;;;30.77;55.62
250;BME280;109;19.806;-70.704;2022-09-09T14:54:16;101332.84;;;30.74;56.05
250;BME280;109;19.806;-70.704;2022-09-09T14:56:42;101335.44;;;30.75;56.58
250;BME280;109;19.806;-70.704;2022-09-09T14:59:23;101336.50;;;30.85;56.17
250;BME280;109;19.806;-70.704;2022-09-09T15:01:49;101326.78;;;30.70;56.13
250;BME280;109;19.806;-70.704;2022-09-09T15:04:30;101331.75;;;30.63;56.89
250;BME280;109;19.806;-70.704;2022-09-09T15:06:56;101327.97;;;30.66;55.98
250;BME280;109;19.806;-70.704;2022-09-09T15:09:36;101330.44;;;30.69;56.43
250;BME280;109;19.806;-70.704;2022-09-09T15:12:03;101326.03;;;30.68;56.27
250;BME280;109;19.806;-70.704;2022-09-09T15:14:43;101319.00;;;30.65;57.08
250;BME280;109;19.806;-70.704;2022-09-09T15:17:09;101312.84;;;30.63;56.42
250;BME280;109;19.806;-70.704;2022-09-09T15:19:49;101311.91;;;30.90;56.65
250;BME280;109;19.806;-70.704;2022-09-09T15:22:23;101317.28;;;30.77;55.64
250;BME280;109;19.806;-70.704;2022-09-09T15:25:04;101308.00;;;30.81;56.16
250;BME280;109;19.806;-70.704;2022-09-09T15:27:31;101305.59;;;30.89;55.48
250;BME280;109;19.806;-70.704;2022-09-09T15:30:17;101297.59;;;30.88;54.60
250;BME280;109;19.806;-70.704;2022-09-09T15:32:57;101291.91;;;30.92;54.83
250;BME280;109;19.806;-70.704;2022-09-09T15:35:37;101297.38;;;31.03;54.90
250;BME280;109;19.806;-70.704;2022-09-09T15:38:03;101296.72;;;31.13;54.96
250;BME280;109;19.806;-70.704;2022-09-09T15:40:53;101294.13;;;31.11;54.11
250;BME280;109;19.806;-70.704;2022-09-09T15:43:27;101287.09;;;31.09;54.19
250;BME280;109;19.806;-70.704;2022-09-09T15:49:06;101288.44;;;30.90;54.83
250;BME280;109;19.806;-70.704;2022-09-09T15:51:57;101280.63;;;30.86;54.63
250;BME280;109;19.806;-70.704;2022-09-09T15:54:37;101280.72;;;30.84;54.94
250;BME280;109;19.806;-70.704;2022-09-09T15:57:07;101271.25;;;30.91;54.58
250;BME280;109;19.806;-70.704;2022-09-09T15:59:50;101275.88;;;31.02;54.97
250;BME280;109;19.806;-70.704;2022-09-09T16:02:16;101273.16;;;30.89;55.36
250;BME280;109;19.806;-70.704;2022-09-09T16:05:05;101274.13;;;30.88;55.00
250;BME280;109;19.806;-70.704;2022-09-09T16:07:38;101265.81;;;31.04;54.98
250;BME280;109;19.806;-70.704;2022-09-09T16:10:18;101272.63;;;30.84;55.72
250;BME280;109;19.806;-70.704;2022-09-09T16:12:44;101268.84;;;30.74;55.60
250;BME280;109;19.806;-70.704;2022-09-09T16:15:25;101269.06;;;30.71;55.75
250;BME280;109;19.806;-70.704;2022-09-09T16:17:53;101267.97;;;30.74;55.45
250;BME280;109;19.806;-70.704;2022-09-09T16:20:33;101263.56;;;30.73;55.75
250;BME280;109;19.806;-70.704;2022-09-09T16:22:59;101268.75;;;30.50;55.72
250;BME280;109;19.806;-70.704;2022-09-09T16:25:39;101263.03;;;30.67;55.47
250;BME280;109;19.806;-70.704;2022-09-09T16:28:05;101258.81;;;30.76;56.00
250;BME280;109;19.806;-70.704;2022-09-09T16:30:52;101256.00;;;30.65;55.62
250;BME280;109;19.806;-70.704;2022-09-09T16:33:32;101257.19;;;30.61;56.13
250;BME280;109;19.806;-70.704;2022-09-09T16:36:14;101248.75;;;30.65;55.38
250;BME280;109;19.806;-70.704;2022-09-09T16:38:41;101249.84;;;30.63;55.82
250;BME280;109;19.806;-70.704;2022-09-09T16:41:22;101244.53;;;30.61;56.21
250;BME280;109;19.806;-70.704;2022-09-09T16:43:53;101247.25;;;30.61;55.77
250;BME280;109;19.806;-70.704;2022-09-09T16:46:40;101231.16;;;30.60;55.94